sensor_id;sensor_type;location;lat;lon;timestamp;P1;durP1;ratioP1;P2;durP2;ratioP2
15476;SDS011;7840;42.702;23.296;2023-04-25T00:00:16;4.00;;;3.70;;
15476;SDS011;7840;42.702;23.296;2023-04-25T00:02:44;4.90;;;3.88;;
15476;SDS011;7840;42.702;23.296;2023-04-25T00:05:11;3.63;;;3.15;;
15476;SDS011;7840;42.702;23.296;2023-04-25T00:07:40;5.07;;;3.80;;
15476;SDS011;7840;42.702;23.296;2023-04-25T00:10:08;3.92;;;3.63;;
15476;SDS011;7840;42.702;23.296;2023-04-25T00:12:37;4.95;;;4.20;;
15476;SDS011;7840;42.702;23.296;2023-04-25T00:15:06;5.00;;;4.15;;
15476;SDS011;7840;42.702;23.296;2023-04-25T00:17:34;5.43;;;3.97;;
15476;SDS011;7840;42.702;23.296;2023-04-25T00:20:03;4.53;;;4.10;;
15476;SDS011;7840;42.702;23.296;2023-04-25T00:22:33;4.20;;;3.83;;
15476;SDS011;7840;42.702;23.296;2023-04-25T00:25:02;4.30;;;3.90;;
15476;SDS011;7840;42.702;23.296;2023-04-25T00:27:30;4.50;;;4.10;;
15476;SDS011;7840;42.702;23.296;2023-04-25T00:29:57;7.50;;;3.80;;
15476;SDS011;7840;42.702;23.296;2023-04-25T00:32:26;4.07;;;3.67;;
15476;SDS011;7840;42.702;23.296;2023-04-25T00:34:54;4.47;;;4.07;;
15476;SDS011;7840;42.702;23.296;2023-04-25T00:37:22;5.22;;;4.70;;
15476;SDS011;7840;42.702;23.296;2023-04-25T00:39:50;7.10;;;5.00;;
15476;SDS011;7840;42.702;23.296;2023-04-25T00:42:18;5.90;;;5.17;;
15476;SDS011;7840;42.702;23.296;2023-04-25T00:44:46;5.57;;;5.07;;
15476;SDS011;7840;42.702;23.296;2023-04-25T00:47:14;6.23;;;5.60;;
15476;SDS011;7840;42.702;23.296;2023-04-25T00:49:43;6.43;;;5.83;;
15476;SDS011;7840;42.702;23.296;2023-04-25T00:52:11;6.30;;;5.20;;
15476;SDS011;7840;42.702;23.296;2023-04-25T00:54:38;6.40;;;5.03;;
15476;SDS011;7840;42.702;23.296;2023-04-25T00:57:05;5.80;;;5.40;;
15476;SDS011;7840;42.702;23.296;2023-04-25T00:59:33;6.03;;;5.43;;
15476;SDS011;7840;42.702;23.296;2023-04-25T01:02:00;5.23;;;4.83;;
15476;SDS011;7840;42.702;23.296;2023-04-25T01:04:28;5.67;;;5.17;;
15476;SDS011;7840;42.702;23.296;2023-04-25T01:06:57;6.60;;;5.32;;
15476;SDS011;7840;42.702;23.296;2023-04-25T01:09:25;6.77;;;6.07;;
15476;SDS011;7840;42.702;23.296;2023-04-25T01:11:52;7.32;;;6.60;;
15476;SDS011;7840;42.702;23.296;2023-04-25T01:14:20;7.10;;;6.50;;
15476;SDS011;7840;42.702;23.296;2023-04-25T01:16:47;9.07;;;6.93;;
15476;SDS011;7840;42.702;23.296;2023-04-25T01:19:16;7.40;;;6.70;;
15476;SDS011;7840;42.702;23.296;2023-04-25T01:21:45;8.07;;;7.23;;
15476;SDS011;7840;42.702;23.296;2023-04-25T01:24:13;7.60;;;6.90;;
15476;SDS011;7840;42.702;23.296;2023-04-25T01:26:41;8.20;;;7.40;;
15476;SDS011;7840;42.702;23.296;2023-04-25T01:29:14;8.70;;;7.83;;
15476;SDS011;7840;42.702;23.296;2023-04-25T01:31:42;8.77;;;7.87;;
15476;SDS011;7840;42.702;23.296;2023-04-25T01:34:14;8.80;;;7.90;;
15476;SDS011;7840;42.702;23.296;2023-04-25T01:36:41;10.13;;;9.13;;
15476;SDS011;7840;42.702;23.296;2023-04-25T01:39:10;8.87;;;8.03;;
15476;SDS011;7840;42.702;23.296;2023-04-25T01:41:38;7.67;;;6.90;;
15476;SDS011;7840;42.702;23.296;2023-04-25T01:44:05;10.07;;;7.57;;
15476;SDS011;7840;42.702;23.296;2023-04-25T01:46:33;7.93;;;7.23;;
15476;SDS011;7840;42.702;23.296;2023-04-25T01:49:01;8.60;;;7.80;;
15476;SDS011;7840;42.702;23.296;2023-04-25T01:51:28;8.33;;;7.53;;
15476;SDS011;7840;42.702;23.296;2023-04-25T01:53:56;9.13;;;7.77;;
15476;SDS011;7840;42.702;23.296;2023-04-25T01:56:27;8.20;;;7.47;;
15476;SDS011;7840;42.702;23.296;2023-04-25T01:58:57;8.37;;;7.50;;
15476;SDS011;7840;42.702;23.296;2023-04-25T02:01:24;8.03;;;7.33;;
15476;SDS011;7840;42.702;23.296;2023-04-25T02:03:52;7.77;;;7.07;;
15476;SDS011;7840;42.702;23.296;2023-04-25T02:06:19;7.43;;;6.77;;
15476;SDS011;7840;42.702;23.296;2023-04-25T02:08:46;6.93;;;6.23;;
15476;SDS011;7840;42.702;23.296;2023-04-25T02:11:14;6.73;;;6.13;;
15476;SDS011;7840;42.702;23.296;2023-04-25T02:13:43;8.37;;;7.57;;
15476;SDS011;7840;42.702;23.296;2023-04-25T02:16:10;7.73;;;7.03;;
15476;SDS011;7840;42.702;23.296;2023-04-25T02:18:38;8.30;;;7.47;;
15476;SDS011;7840;42.702;23.296;2023-04-25T02:21:06;7.83;;;7.13;;
15476;SDS011;7840;42.702;23.296;2023-04-25T02:23:33;7.10;;;6.40;;
15476;SDS011;7840;42.702;23.296;2023-04-25T02:26:00;7.60;;;6.90;;
15476;SDS011;7840;42.702;23.296;2023-04-25T02:28:28;7.13;;;6.53;;
15476;SDS011;7840;42.702;23.296;2023-04-25T02:30:57;7.67;;;6.93;;
15476;SDS011;7840;42.702;23.296;2023-04-25T02:33:24;8.43;;;7.63;;
15476;SDS011;7840;42.702;23.296;2023-04-25T02:35:51;7.70;;;7.00;;
15476;SDS011;7840;42.702;23.296;2023-04-25T02:38:19;8.40;;;7.70;;
15476;SDS011;7840;42.702;23.296;2023-04-25T02:40:46;8.60;;;7.80;;
15476;SDS011;7840;42.702;23.296;2023-04-25T02:43:14;7.83;;;7.13;;
15476;SDS011;7840;42.702;23.296;2023-04-25T02:45:41;9.07;;;8.17;;
15476;SDS011;7840;42.702;23.296;2023-04-25T02:48:10;8.90;;;8.10;;
15476;SDS011;7840;42.702;23.296;2023-04-25T02:50:38;8.07;;;7.27;;
15476;SDS011;7840;42.702;23.296;2023-04-25T02:53:05;9.10;;;8.30;;
15476;SDS011;7840;42.702;23.296;2023-04-25T02:55:32;10.57;;;9.20;;
15476;SDS011;7840;42.702;23.296;2023-04-25T02:58:00;9.80;;;8.90;;
15476;SDS011;7840;42.702;23.296;2023-04-25T03:00:27;9.80;;;8.90;;
15476;SDS011;7840;42.702;23.296;2023-04-25T03:02:55;11.33;;;9.30;;
15476;SDS011;7840;42.702;23.296;2023-04-25T03:05:24;10.00;;;9.00;;
15476;SDS011;7840;42.702;23.296;2023-04-25T03:07:51;10.67;;;9.57;;
15476;SDS011;7840;42.702;23.296;2023-04-25T03:10:19;10.77;;;9.77;;
15476;SDS011;7840;42.702;23.296;2023-04-25T03:12:46;11.60;;;10.20;;
15476;SDS011;7840;42.702;23.296;2023-04-25T03:15:14;11.10;;;10.00;;
15476;SDS011;7840;42.702;23.296;2023-04-25T03:17:41;11.33;;;10.23;;
15476;SDS011;7840;42.702;23.296;2023-04-25T03:20:09;12.57;;;10.30;;
15476;SDS011;7840;42.702;23.296;2023-04-25T03:22:38;11.23;;;9.87;;
15476;SDS011;7840;42.702;23.296;2023-04-25T03:25:06;10.60;;;9.67;;
15476;SDS011;7840;42.702;23.296;2023-04-25T03:27:33;10.57;;;9.47;;
15476;SDS011;7840;42.702;23.296;2023-04-25T03:30:02;10.80;;;9.77;;
15476;SDS011;7840;42.702;23.296;2023-04-25T03:32:29;10.37;;;9.37;;
15476;SDS011;7840;42.702;23.296;2023-04-25T03:34:56;9.37;;;8.50;;
15476;SDS011;7840;42.702;23.296;2023-04-25T03:37:24;8.70;;;7.90;;
15476;SDS011;7840;42.702;23.296;2023-04-25T03:39:52;10.27;;;9.20;;
15476;SDS011;7840;42.702;23.296;2023-04-25T03:42:20;9.63;;;8.30;;
15476;SDS011;7840;42.702;23.296;2023-04-25T03:44:48;9.73;;;8.83;;
15476;SDS011;7840;42.702;23.296;2023-04-25T03:47:16;10.87;;;9.53;;
15476;SDS011;7840;42.702;23.296;2023-04-25T03:49:43;11.70;;;9.47;;
15476;SDS011;7840;42.702;23.296;2023-04-25T03:52:10;10.43;;;8.73;;
15476;SDS011;7840;42.702;23.296;2023-04-25T03:54:38;8.60;;;7.80;;
15476;SDS011;7840;42.702;23.296;2023-04-25T03:57:06;11.47;;;8.63;;
15476;SDS011;7840;42.702;23.296;2023-04-25T03:59:34;9.20;;;7.90;;
15476;SDS011;7840;42.702;23.296;2023-04-25T04:02:02;8.90;;;8.07;;
15476;SDS011;7840;42.702;23.296;2023-04-25T04:04:29;10.93;;;8.93;;
15476;SDS011;7840;42.702;23.296;2023-04-25T04:06:56;9.70;;;8.70;;
15476;SDS011;7840;42.702;23.296;2023-04-25T04:09:24;10.33;;;9.40;;
15476;SDS011;7840;42.702;23.296;2023-04-25T04:11:52;11.10;;;9.57;;
15476;SDS011;7840;42.702;23.296;2023-04-25T04:14:21;10.53;;;9.50;;
15476;SDS011;7840;42.702;23.296;2023-04-25T04:16:50;10.30;;;9.40;;
15476;SDS011;7840;42.702;23.296;2023-04-25T04:19:18;9.33;;;8.43;;
15476;SDS011;7840;42.702;23.296;2023-04-25T04:21:45;9.40;;;8.07;;
15476;SDS011;7840;42.702;23.296;2023-04-25T04:24:13;9.23;;;8.33;;
15476;SDS011;7840;42.702;23.296;2023-04-25T04:26:42;9.00;;;8.20;;
15476;SDS011;7840;42.702;23.296;2023-04-25T04:29:10;9.33;;;8.13;;
15476;SDS011;7840;42.702;23.296;2023-04-25T04:31:47;10.10;;;8.97;;
15476;SDS011;7840;42.702;23.296;2023-04-25T04:34:14;9.73;;;8.73;;
15476;SDS011;7840;42.702;23.296;2023-04-25T04:36:43;9.33;;;8.57;;
15476;SDS011;7840;42.702;23.296;2023-04-25T04:39:11;8.37;;;7.57;;
15476;SDS011;7840;42.702;23.296;2023-04-25T04:41:38;8.97;;;8.17;;
15476;SDS011;7840;42.702;23.296;2023-04-25T04:44:06;9.00;;;8.20;;
15476;SDS011;7840;42.702;23.296;2023-04-25T04:46:34;10.03;;;9.03;;
15476;SDS011;7840;42.702;23.296;2023-04-25T04:49:08;13.20;;;8.80;;
15476;SDS011;7840;42.702;23.296;2023-04-25T04:51:36;9.13;;;8.33;;
15476;SDS011;7840;42.702;23.296;2023-04-25T04:54:03;9.80;;;8.90;;
15476;SDS011;7840;42.702;23.296;2023-04-25T04:56:31;10.82;;;9.82;;
15476;SDS011;7840;42.702;23.296;2023-04-25T04:58:58;12.47;;;9.80;;
15476;SDS011;7840;42.702;23.296;2023-04-25T05:01:27;11.57;;;10.53;;
15476;SDS011;7840;42.702;23.296;2023-04-25T05:03:55;11.77;;;10.63;;
15476;SDS011;7840;42.702;23.296;2023-04-25T05:06:26;12.83;;;11.60;;
15476;SDS011;7840;42.702;23.296;2023-04-25T05:08:55;13.67;;;12.23;;
15476;SDS011;7840;42.702;23.296;2023-04-25T05:11:22;13.40;;;12.03;;
15476;SDS011;7840;42.702;23.296;2023-04-25T05:13:50;13.00;;;11.80;;
15476;SDS011;7840;42.702;23.296;2023-04-25T05:16:18;13.43;;;12.03;;
15476;SDS011;7840;42.702;23.296;2023-04-25T05:18:45;12.67;;;11.37;;
15476;SDS011;7840;42.702;23.296;2023-04-25T05:21:13;12.77;;;11.57;;
15476;SDS011;7840;42.702;23.296;2023-04-25T05:23:41;13.00;;;11.67;;
15476;SDS011;7840;42.702;23.296;2023-04-25T05:26:09;12.03;;;10.83;;
15476;SDS011;7840;42.702;23.296;2023-04-25T05:28:39;11.80;;;10.40;;
15476;SDS011;7840;42.702;23.296;2023-04-25T05:31:06;12.03;;;10.93;;
15476;SDS011;7840;42.702;23.296;2023-04-25T05:33:34;11.97;;;10.57;;
15476;SDS011;7840;42.702;23.296;2023-04-25T05:36:02;11.73;;;10.53;;
15476;SDS011;7840;42.702;23.296;2023-04-25T05:38:29;11.27;;;10.15;;
15476;SDS011;7840;42.702;23.296;2023-04-25T05:43:28;10.88;;;9.88;;
15476;SDS011;7840;42.702;23.296;2023-04-25T05:45:55;11.25;;;10.23;;
15476;SDS011;7840;42.702;23.296;2023-04-25T05:48:22;10.65;;;9.52;;
15476;SDS011;7840;42.702;23.296;2023-04-25T05:50:50;10.00;;;8.95;;
15476;SDS011;7840;42.702;23.296;2023-04-25T05:53:18;10.65;;;9.57;;
15476;SDS011;7840;42.702;23.296;2023-04-25T05:55:45;10.82;;;9.45;;
15476;SDS011;7840;42.702;23.296;2023-04-25T05:58:13;11.43;;;9.20;;
15476;SDS011;7840;42.702;23.296;2023-04-25T06:00:42;10.50;;;9.20;;
15476;SDS011;7840;42.702;23.296;2023-04-25T06:03:09;11.18;;;9.57;;
15476;SDS011;7840;42.702;23.296;2023-04-25T06:05:38;15.35;;;10.02;;
15476;SDS011;7840;42.702;23.296;2023-04-25T06:08:06;9.45;;;8.55;;
15476;SDS011;7840;42.702;23.296;2023-04-25T06:10:35;11.98;;;10.38;;
15476;SDS011;7840;42.702;23.296;2023-04-25T06:13:03;10.90;;;9.80;;
15476;SDS011;7840;42.702;23.296;2023-04-25T06:15:31;11.48;;;10.35;;
15476;SDS011;7840;42.702;23.296;2023-04-25T06:17:59;11.50;;;10.40;;
15476;SDS011;7840;42.702;23.296;2023-04-25T06:20:27;11.35;;;10.15;;
15476;SDS011;7840;42.702;23.296;2023-04-25T06:22:55;17.00;;;10.60;;
15476;SDS011;7840;42.702;23.296;2023-04-25T06:25:22;10.65;;;9.57;;
15476;SDS011;7840;42.702;23.296;2023-04-25T06:27:50;12.40;;;11.15;;
15476;SDS011;7840;42.702;23.296;2023-04-25T06:30:17;13.00;;;10.90;;
15476;SDS011;7840;42.702;23.296;2023-04-25T06:32:47;10.93;;;9.57;;
15476;SDS011;7840;42.702;23.296;2023-04-25T06:35:16;10.82;;;9.75;;
15476;SDS011;7840;42.702;23.296;2023-04-25T06:37:43;10.70;;;9.60;;
15476;SDS011;7840;42.702;23.296;2023-04-25T06:40:11;11.23;;;10.13;;
15476;SDS011;7840;42.702;23.296;2023-04-25T06:42:38;11.45;;;9.32;;
15476;SDS011;7840;42.702;23.296;2023-04-25T06:45:06;8.32;;;7.22;;
15476;SDS011;7840;42.702;23.296;2023-04-25T06:47:33;8.05;;;7.35;;
15476;SDS011;7840;42.702;23.296;2023-04-25T06:50:01;7.85;;;7.05;;
15476;SDS011;7840;42.702;23.296;2023-04-25T06:52:29;8.20;;;7.15;;
15476;SDS011;7840;42.702;23.296;2023-04-25T06:54:57;7.55;;;6.82;;
15476;SDS011;7840;42.702;23.296;2023-04-25T06:57:24;10.23;;;7.18;;
15476;SDS011;7840;42.702;23.296;2023-04-25T06:59:51;9.20;;;7.47;;
15476;SDS011;7840;42.702;23.296;2023-04-25T07:02:19;7.97;;;7.18;;
15476;SDS011;7840;42.702;23.296;2023-04-25T07:04:47;11.35;;;7.30;;
15476;SDS011;7840;42.702;23.296;2023-04-25T07:07:14;8.32;;;6.78;;
15476;SDS011;7840;42.702;23.296;2023-04-25T07:09:43;10.65;;;7.47;;
15476;SDS011;7840;42.702;23.296;2023-04-25T07:12:11;7.30;;;6.47;;
15476;SDS011;7840;42.702;23.296;2023-04-25T07:14:38;9.05;;;7.70;;
15476;SDS011;7840;42.702;23.296;2023-04-25T07:17:06;8.82;;;7.18;;
15476;SDS011;7840;42.702;23.296;2023-04-25T07:19:33;16.98;;;7.97;;
15476;SDS011;7840;42.702;23.296;2023-04-25T07:22:02;12.68;;;7.50;;
15476;SDS011;7840;42.702;23.296;2023-04-25T07:24:29;10.25;;;7.50;;
15476;SDS011;7840;42.702;23.296;2023-04-25T07:26:58;12.32;;;7.68;;
15476;SDS011;7840;42.702;23.296;2023-04-25T07:29:28;12.75;;;7.95;;
15476;SDS011;7840;42.702;23.296;2023-04-25T07:31:56;10.38;;;8.35;;
15476;SDS011;7840;42.702;23.296;2023-04-25T07:34:24;15.05;;;7.97;;
15476;SDS011;7840;42.702;23.296;2023-04-25T07:36:51;14.57;;;7.57;;
15476;SDS011;7840;42.702;23.296;2023-04-25T07:39:19;15.23;;;8.68;;
15476;SDS011;7840;42.702;23.296;2023-04-25T07:41:46;14.93;;;8.13;;
15476;SDS011;7840;42.702;23.296;2023-04-25T07:44:15;20.90;;;8.50;;
15476;SDS011;7840;42.702;23.296;2023-04-25T07:46:42;10.43;;;7.13;;
15476;SDS011;7840;42.702;23.296;2023-04-25T07:49:09;11.77;;;7.80;;
15476;SDS011;7840;42.702;23.296;2023-04-25T07:51:37;10.38;;;7.60;;
15476;SDS011;7840;42.702;23.296;2023-04-25T07:54:04;13.75;;;7.25;;
15476;SDS011;7840;42.702;23.296;2023-04-25T07:56:32;13.98;;;7.00;;
15476;SDS011;7840;42.702;23.296;2023-04-25T07:58:59;10.55;;;7.50;;
15476;SDS011;7840;42.702;23.296;2023-04-25T08:01:28;14.73;;;7.68;;
15476;SDS011;7840;42.702;23.296;2023-04-25T08:03:55;11.85;;;7.85;;
15476;SDS011;7840;42.702;23.296;2023-04-25T08:06:26;11.30;;;7.45;;
15476;SDS011;7840;42.702;23.296;2023-04-25T08:08:53;14.38;;;7.68;;
15476;SDS011;7840;42.702;23.296;2023-04-25T08:11:20;12.60;;;7.82;;
15476;SDS011;7840;42.702;23.296;2023-04-25T08:13:48;13.35;;;6.97;;
15476;SDS011;7840;42.702;23.296;2023-04-25T08:16:15;12.13;;;7.38;;
15476;SDS011;7840;42.702;23.296;2023-04-25T08:18:44;15.73;;;7.88;;
15476;SDS011;7840;42.702;23.296;2023-04-25T08:21:11;11.23;;;6.85;;
15476;SDS011;7840;42.702;23.296;2023-04-25T08:23:39;8.95;;;6.55;;
15476;SDS011;7840;42.702;23.296;2023-04-25T08:26:06;8.32;;;7.45;;
15476;SDS011;7840;42.702;23.296;2023-04-25T08:28:33;11.43;;;8.02;;
15476;SDS011;7840;42.702;23.296;2023-04-25T08:31:01;11.18;;;8.15;;
15476;SDS011;7840;42.702;23.296;2023-04-25T08:33:33;16.58;;;8.70;;
15476;SDS011;7840;42.702;23.296;2023-04-25T08:36:02;7.20;;;5.50;;
15476;SDS011;7840;42.702;23.296;2023-04-25T08:38:32;7.53;;;4.55;;
15476;SDS011;7840;42.702;23.296;2023-04-25T08:40:59;5.15;;;4.63;;
15476;SDS011;7840;42.702;23.296;2023-04-25T08:43:27;6.90;;;5.20;;
15476;SDS011;7840;42.702;23.296;2023-04-25T08:45:56;5.72;;;4.82;;
15476;SDS011;7840;42.702;23.296;2023-04-25T08:48:26;5.72;;;4.22;;
15476;SDS011;7840;42.702;23.296;2023-04-25T08:50:55;6.25;;;4.13;;
15476;SDS011;7840;42.702;23.296;2023-04-25T08:53:26;5.97;;;3.78;;
15476;SDS011;7840;42.702;23.296;2023-04-25T08:55:55;4.50;;;3.67;;
15476;SDS011;7840;42.702;23.296;2023-04-25T08:58:22;4.15;;;3.15;;
15476;SDS011;7840;42.702;23.296;2023-04-25T09:00:51;4.40;;;3.80;;
15476;SDS011;7840;42.702;23.296;2023-04-25T09:03:19;4.80;;;3.75;;
15476;SDS011;7840;42.702;23.296;2023-04-25T09:05:46;4.40;;;3.53;;
15476;SDS011;7840;42.702;23.296;2023-04-25T09:08:13;6.32;;;3.97;;
15476;SDS011;7840;42.702;23.296;2023-04-25T09:10:42;6.93;;;4.40;;
15476;SDS011;7840;42.702;23.296;2023-04-25T09:13:10;6.43;;;3.92;;
15476;SDS011;7840;42.702;23.296;2023-04-25T09:15:49;6.03;;;4.63;;
15476;SDS011;7840;42.702;23.296;2023-04-25T09:18:23;6.00;;;5.18;;
15476;SDS011;7840;42.702;23.296;2023-04-25T09:20:53;5.95;;;4.38;;
15476;SDS011;7840;42.702;23.296;2023-04-25T09:23:21;5.90;;;4.93;;
15476;SDS011;7840;42.702;23.296;2023-04-25T09:25:51;7.07;;;4.88;;
15476;SDS011;7840;42.702;23.296;2023-04-25T09:28:23;5.82;;;4.70;;
15476;SDS011;7840;42.702;23.296;2023-04-25T09:30:54;5.93;;;4.60;;
15476;SDS011;7840;42.702;23.296;2023-04-25T09:33:26;10.32;;;4.55;;
15476;SDS011;7840;42.702;23.296;2023-04-25T09:35:56;5.50;;;4.07;;
15476;SDS011;7840;42.702;23.296;2023-04-25T09:38:28;5.15;;;3.75;;
15476;SDS011;7840;42.702;23.296;2023-04-25T09:40:58;11.77;;;4.45;;
15476;SDS011;7840;42.702;23.296;2023-04-25T09:43:26;2.03;;;1.50;;
15476;SDS011;7840;42.702;23.296;2023-04-25T09:45:54;2.08;;;1.40;;
15476;SDS011;7840;42.702;23.296;2023-04-25T09:48:24;6.88;;;3.70;;
15476;SDS011;7840;42.702;23.296;2023-04-25T09:51:05;6.25;;;3.13;;
15476;SDS011;7840;42.702;23.296;2023-04-25T09:53:33;4.22;;;2.97;;
15476;SDS011;7840;42.702;23.296;2023-04-25T09:56:01;5.53;;;2.60;;
15476;SDS011;7840;42.702;23.296;2023-04-25T09:58:30;4.80;;;2.50;;
15476;SDS011;7840;42.702;23.296;2023-04-25T10:01:04;6.80;;;3.17;;
15476;SDS011;7840;42.702;23.296;2023-04-25T10:03:33;6.18;;;3.10;;
15476;SDS011;7840;42.702;23.296;2023-04-25T10:06:01;5.30;;;3.08;;
15476;SDS011;7840;42.702;23.296;2023-04-25T10:08:30;5.15;;;2.47;;
15476;SDS011;7840;42.702;23.296;2023-04-25T10:10:59;4.15;;;2.88;;
15476;SDS011;7840;42.702;23.296;2023-04-25T10:13:29;3.95;;;2.40;;
15476;SDS011;7840;42.702;23.296;2023-04-25T10:15:57;5.95;;;2.67;;
15476;SDS011;7840;42.702;23.296;2023-04-25T10:18:25;7.82;;;2.00;;
15476;SDS011;7840;42.702;23.296;2023-04-25T10:20:53;2.88;;;1.95;;
15476;SDS011;7840;42.702;23.296;2023-04-25T10:23:21;3.38;;;1.35;;
15476;SDS011;7840;42.702;23.296;2023-04-25T10:25:48;1.63;;;1.40;;
15476;SDS011;7840;42.702;23.296;2023-04-25T10:28:16;2.10;;;1.85;;
15476;SDS011;7840;42.702;23.296;2023-04-25T10:31:00;2.42;;;1.20;;
15476;SDS011;7840;42.702;23.296;2023-04-25T10:33:34;3.15;;;1.77;;
15476;SDS011;7840;42.702;23.296;2023-04-25T10:36:09;6.10;;;1.60;;
15476;SDS011;7840;42.702;23.296;2023-04-25T10:38:37;2.13;;;1.50;;
15476;SDS011;7840;42.702;23.296;2023-04-25T10:41:04;3.47;;;1.77;;
15476;SDS011;7840;42.702;23.296;2023-04-25T10:43:34;2.63;;;1.35;;
15476;SDS011;7840;42.702;23.296;2023-04-25T10:46:03;2.15;;;1.40;;
15476;SDS011;7840;42.702;23.296;2023-04-25T10:48:43;3.92;;;1.80;;
15476;SDS011;7840;42.702;23.296;2023-04-25T10:51:14;1.92;;;1.50;;
15476;SDS011;7840;42.702;23.296;2023-04-25T10:53:43;1.52;;;1.20;;
15476;SDS011;7840;42.702;23.296;2023-04-25T10:56:11;2.22;;;1.67;;
15476;SDS011;7840;42.702;23.296;2023-04-25T10:58:42;3.88;;;1.75;;
15476;SDS011;7840;42.702;23.296;2023-04-25T11:01:11;1.98;;;1.20;;
15476;SDS011;7840;42.702;23.296;2023-04-25T11:03:40;1.88;;;1.13;;
15476;SDS011;7840;42.702;23.296;2023-04-25T11:06:18;1.83;;;1.25;;
15476;SDS011;7840;42.702;23.296;2023-04-25T11:08:48;1.30;;;1.00;;
15476;SDS011;7840;42.702;23.296;2023-04-25T11:11:16;1.00;;;0.90;;
15476;SDS011;7840;42.702;23.296;2023-04-25T11:13:43;6.65;;;1.23;;
15476;SDS011;7840;42.702;23.296;2023-04-25T11:16:12;1.30;;;0.90;;
15476;SDS011;7840;42.702;23.296;2023-04-25T11:18:40;0.93;;;0.90;;
15476;SDS011;7840;42.702;23.296;2023-04-25T11:21:08;1.25;;;1.15;;
15476;SDS011;7840;42.702;23.296;2023-04-25T11:23:35;2.17;;;1.58;;
15476;SDS011;7840;42.702;23.296;2023-04-25T11:26:03;1.23;;;1.13;;
15476;SDS011;7840;42.702;23.296;2023-04-25T11:28:30;1.95;;;1.40;;
15476;SDS011;7840;42.702;23.296;2023-04-25T11:30:57;1.92;;;1.50;;
15476;SDS011;7840;42.702;23.296;2023-04-25T11:33:26;2.55;;;1.50;;
15476;SDS011;7840;42.702;23.296;2023-04-25T11:35:54;2.05;;;1.30;;
15476;SDS011;7840;42.702;23.296;2023-04-25T11:38:22;1.90;;;1.40;;
15476;SDS011;7840;42.702;23.296;2023-04-25T11:40:50;1.30;;;1.20;;
15476;SDS011;7840;42.702;23.296;2023-04-25T11:43:17;1.20;;;1.10;;
15476;SDS011;7840;42.702;23.296;2023-04-25T11:45:46;1.40;;;1.10;;
15476;SDS011;7840;42.702;23.296;2023-04-25T11:48:14;2.30;;;1.02;;
15476;SDS011;7840;42.702;23.296;2023-04-25T11:50:42;2.67;;;1.40;;
15476;SDS011;7840;42.702;23.296;2023-04-25T11:53:10;1.50;;;1.40;;
15476;SDS011;7840;42.702;23.296;2023-04-25T11:55:38;1.52;;;1.35;;
15476;SDS011;7840;42.702;23.296;2023-04-25T11:58:06;1.40;;;1.30;;
15476;SDS011;7840;42.702;23.296;2023-04-25T12:00:33;1.45;;;1.35;;
15476;SDS011;7840;42.702;23.296;2023-04-25T12:03:01;1.45;;;0.98;;
15476;SDS011;7840;42.702;23.296;2023-04-25T12:05:29;1.88;;;0.80;;
15476;SDS011;7840;42.702;23.296;2023-04-25T12:07:59;1.77;;;0.93;;
15476;SDS011;7840;42.702;23.296;2023-04-25T12:10:37;0.73;;;0.73;;
15476;SDS011;7840;42.702;23.296;2023-04-25T12:13:17;1.20;;;1.10;;
15476;SDS011;7840;42.702;23.296;2023-04-25T12:15:54;2.10;;;1.10;;
15476;SDS011;7840;42.702;23.296;2023-04-25T12:18:22;1.40;;;1.30;;
15476;SDS011;7840;42.702;23.296;2023-04-25T12:20:50;4.22;;;1.70;;
15476;SDS011;7840;42.702;23.296;2023-04-25T12:23:26;4.63;;;1.50;;
15476;SDS011;7840;42.702;23.296;2023-04-25T12:25:53;4.45;;;1.40;;
15476;SDS011;7840;42.702;23.296;2023-04-25T12:28:21;4.32;;;1.40;;
15476;SDS011;7840;42.702;23.296;2023-04-25T12:30:56;6.88;;;1.90;;
15476;SDS011;7840;42.702;23.296;2023-04-25T12:33:24;2.53;;;1.60;;
15476;SDS011;7840;42.702;23.296;2023-04-25T12:35:52;3.97;;;1.55;;
15476;SDS011;7840;42.702;23.296;2023-04-25T12:38:23;2.92;;;1.52;;
15476;SDS011;7840;42.702;23.296;2023-04-25T12:40:52;3.55;;;1.27;;
15476;SDS011;7840;42.702;23.296;2023-04-25T12:43:19;3.00;;;1.70;;
15476;SDS011;7840;42.702;23.296;2023-04-25T12:45:47;2.93;;;1.67;;
15476;SDS011;7840;42.702;23.296;2023-04-25T12:48:16;2.80;;;1.60;;
15476;SDS011;7840;42.702;23.296;2023-04-25T12:50:43;1.38;;;1.23;;
15476;SDS011;7840;42.702;23.296;2023-04-25T12:53:14;3.42;;;1.50;;
15476;SDS011;7840;42.702;23.296;2023-04-25T12:55:41;1.50;;;1.30;;
15476;SDS011;7840;42.702;23.296;2023-04-25T12:58:12;1.95;;;1.33;;
15476;SDS011;7840;42.702;23.296;2023-04-25T13:00:39;1.10;;;1.00;;
15476;SDS011;7840;42.702;23.296;2023-04-25T13:03:07;2.20;;;1.52;;
15476;SDS011;7840;42.702;23.296;2023-04-25T13:05:35;3.35;;;1.42;;
15476;SDS011;7840;42.702;23.296;2023-04-25T13:08:03;2.58;;;1.70;;
15476;SDS011;7840;42.702;23.296;2023-04-25T13:10:30;1.52;;;1.35;;
15476;SDS011;7840;42.702;23.296;2023-04-25T13:12:59;2.20;;;2.00;;
15476;SDS011;7840;42.702;23.296;2023-04-25T13:15:27;4.38;;;3.63;;
15476;SDS011;7840;42.702;23.296;2023-04-25T13:17:55;3.78;;;2.90;;
15476;SDS011;7840;42.702;23.296;2023-04-25T13:20:22;5.97;;;2.90;;
15476;SDS011;7840;42.702;23.296;2023-04-25T13:22:50;4.80;;;3.00;;
15476;SDS011;7840;42.702;23.296;2023-04-25T13:25:17;4.78;;;3.00;;
15476;SDS011;7840;42.702;23.296;2023-04-25T13:27:44;3.72;;;2.75;;
15476;SDS011;7840;42.702;23.296;2023-04-25T13:30:12;5.07;;;3.00;;
15476;SDS011;7840;42.702;23.296;2023-04-25T13:32:41;3.20;;;2.50;;
15476;SDS011;7840;42.702;23.296;2023-04-25T13:35:10;2.97;;;2.67;;
15476;SDS011;7840;42.702;23.296;2023-04-25T13:37:39;3.65;;;2.38;;
15476;SDS011;7840;42.702;23.296;2023-04-25T13:40:07;3.67;;;2.53;;
15476;SDS011;7840;42.702;23.296;2023-04-25T13:42:36;4.07;;;2.22;;
15476;SDS011;7840;42.702;23.296;2023-04-25T13:45:04;5.32;;;3.80;;
15476;SDS011;7840;42.702;23.296;2023-04-25T13:47:31;5.43;;;3.50;;
15476;SDS011;7840;42.702;23.296;2023-04-25T13:50:00;5.70;;;2.78;;
15476;SDS011;7840;42.702;23.296;2023-04-25T13:52:29;6.32;;;2.95;;
15476;SDS011;7840;42.702;23.296;2023-04-25T13:54:56;3.63;;;2.70;;
15476;SDS011;7840;42.702;23.296;2023-04-25T13:57:24;3.88;;;2.85;;
15476;SDS011;7840;42.702;23.296;2023-04-25T13:59:51;4.05;;;2.60;;
15476;SDS011;7840;42.702;23.296;2023-04-25T14:02:19;3.05;;;1.90;;
15476;SDS011;7840;42.702;23.296;2023-04-25T14:04:46;4.40;;;2.38;;
15476;SDS011;7840;42.702;23.296;2023-04-25T14:07:15;4.32;;;1.70;;
15476;SDS011;7840;42.702;23.296;2023-04-25T14:09:43;1.63;;;1.52;;
15476;SDS011;7840;42.702;23.296;2023-04-25T14:12:10;1.63;;;1.52;;
15476;SDS011;7840;42.702;23.296;2023-04-25T14:14:37;2.45;;;1.80;;
15476;SDS011;7840;42.702;23.296;2023-04-25T14:17:05;2.25;;;1.60;;
15476;SDS011;7840;42.702;23.296;2023-04-25T14:19:32;1.60;;;1.50;;
15476;SDS011;7840;42.702;23.296;2023-04-25T14:21:59;1.50;;;1.40;;
15476;SDS011;7840;42.702;23.296;2023-04-25T14:24:28;1.67;;;1.30;;
15476;SDS011;7840;42.702;23.296;2023-04-25T14:26:56;1.92;;;1.50;;
15476;SDS011;7840;42.702;23.296;2023-04-25T14:29:23;1.77;;;1.58;;
15476;SDS011;7840;42.702;23.296;2023-04-25T14:31:51;1.65;;;1.40;;
15476;SDS011;7840;42.702;23.296;2023-04-25T14:34:19;2.10;;;1.70;;
15476;SDS011;7840;42.702;23.296;2023-04-25T14:36:46;2.67;;;1.45;;
15476;SDS011;7840;42.702;23.296;2023-04-25T14:39:14;4.13;;;1.85;;
15476;SDS011;7840;42.702;23.296;2023-04-25T14:41:43;3.28;;;2.60;;
15476;SDS011;7840;42.702;23.296;2023-04-25T14:44:10;3.20;;;2.78;;
15476;SDS011;7840;42.702;23.296;2023-04-25T14:46:37;2.38;;;2.17;;
15476;SDS011;7840;42.702;23.296;2023-04-25T14:49:08;2.90;;;2.30;;
15476;SDS011;7840;42.702;23.296;2023-04-25T14:51:35;2.78;;;2.35;;